Погода Табукна 2 недели

Табук, Саудовская Аравия

03 - 15 марта
  • 03марта
    Сегодня
    +8°
    +23°
    Ясно и безоблачно
    ВремяПогодаТемператураВлажностьДавлениеВетер, м/сВероятность осадков
    00:00Ясно и безоблачно+18°C31 %695 мм3.5 м/с2 %
    03:00Ясно и безоблачно+15°C34 %695 мм3.5 м/с2 %
    06:00Ясно и безоблачно+11°C65 %695 мм2.6 м/с2 %
    09:00Ясно и безоблачно+13°C58 %697 мм2.1 м/с2 %
    12:00Ясно и безоблачно+18°C33 %697 мм1.8 м/с2 %
    15:00Ясно и безоблачно+22°C19 %696 мм1.9 м/с2 %
    18:00Практически безоблачно+22°C13 %695 мм4.1 м/с2 %
    21:00Ясно и безоблачно+18°C24 %696 мм2.9 м/с2 %
  • 04марта
    Понедельник
    +9°
    +23°
    Ясно и безоблачно
    ВремяПогодаТемператураВлажностьДавлениеВетер, м/сВероятность осадков
    00:00Ясно и безоблачно+14°C47 %696 мм3.3 м/с2 %
    03:00Ясно и безоблачно+11°C62 %695 мм3.0 м/с2 %
    06:00Ясно и безоблачно+9°C74 %696 мм1.6 м/с2 %
    09:00Ясно и безоблачно+12°C62 %698 мм1.2 м/с2 %
    12:00Ясно и безоблачно+18°C34 %697 мм1.1 м/с2 %
    15:00Ясно и безоблачно+22°C17 %696 мм1.3 м/с2 %
    18:00Ясно и безоблачно+22°C17 %696 мм3.0 м/с2 %
    21:00Ясно и безоблачно+19°C21 %696 мм2.0 м/с2 %
  • 05марта
    Вторник
    +10°
    +26°
    Ясно и безоблачно
    ВремяПогодаТемператураВлажностьДавлениеВетер, м/сВероятность осадков
    00:00Ясно и безоблачно+16°C23 %696 мм2.2 м/с2 %
    03:00Ясно и безоблачно+12°C31 %695 мм2.3 м/с2 %
    06:00Ясно и безоблачно+9°C44 %695 мм1.3 м/с2 %
    09:00Ясно и безоблачно+12°C39 %697 мм0.9 м/с2 %
    12:00Ясно и безоблачно+20°C19 %697 мм0.9 м/с2 %
    15:00Ясно и безоблачно+25°C9 %696 мм1.4 м/с2 %
    18:00Ясно и безоблачно+25°C9 %696 мм3.3 м/с2 %
    21:00Ясно и безоблачно+20°C12 %696 мм1.9 м/с2 %
  • 06марта
    Среда
    +10°
    +27°
    Ясно и безоблачно
    ВремяПогодаТемператураВлажностьДавлениеВетер, м/сВероятность осадков
    00:00Ясно и безоблачно+17°C15 %696 мм2.3 м/с2 %
    03:00Ясно и безоблачно+13°C20 %694 мм1.8 м/с2 %
    06:00Ясно и безоблачно+10°C28 %694 мм1.2 м/с2 %
    09:00Ясно и безоблачно+14°C22 %696 мм1.0 м/с2 %
    12:00Ясно и безоблачно+22°C13 %696 мм1.3 м/с2 %
    15:00Ясно и безоблачно+26°C11 %695 мм2.5 м/с2 %
    18:00Ясно и безоблачно+26°C9 %695 мм3.1 м/с2 %
    21:00Ясно и безоблачно+21°C18 %696 мм4.4 м/с2 %
  • 07марта
    Четверг
    +8°
    +24°
    Ясно и безоблачно
    ВремяПогодаТемператураВлажностьДавлениеВетер, м/сВероятность осадков
    00:00Ясно и безоблачно+16°C34 %696 мм4.1 м/с2 %
    03:00Ясно и безоблачно+13°C56 %696 мм2.9 м/с2 %
    06:00Ясно и безоблачно+10°C71 %696 мм1.8 м/с2 %
    09:00Ясно и безоблачно+13°C59 %698 мм1.9 м/с2 %
    12:00Ясно и безоблачно+18°C37 %698 мм1.6 м/с2 %
    15:00Ясно и безоблачно+22°C23 %696 мм2.0 м/с2 %
    18:00Ясно и безоблачно+23°C21 %696 мм3.9 м/с2 %
    21:00Ясно и безоблачно+19°C28 %696 мм1.9 м/с2 %
Мы используем cookies
Соглашаюсь